Time;durP1;ratioP1;P1;durP2;ratioP2;P2;SDS_P1;SDS_P2;PMS_P1;PMS_P2;Temp;Humidity;BMP_temperature;BMP_pressure;BME280_temperature;BME280_humidity;BME280_pressure;Samples;Min_cycle;Max_cycle;Signal;HPM_P1;HPM_P2
2022/04/30 00:00:48;;;;;;;13.40;8.35;;;11.70;98.00;;;;;;4966361;28;20030;-79
2022/04/30 00:03:14;;;;;;;11.98;7.75;;;11.70;98.00;;;;;;4951125;28;20589;-79
2022/04/30 00:05:39;;;;;;;11.82;7.60;;;11.70;97.90;;;;;;4967593;28;20053;-79
2022/04/30 00:08:06;;;;;;;10.68;7.57;;;11.80;97.90;;;;;;4969732;28;20092;-79
2022/04/30 00:10:37;;;;;;;11.10;7.30;;;11.70;98.00;;;;;;4977685;28;20030;-79
2022/04/30 00:13:07;;;;;;;11.93;7.60;;;11.70;98.40;;;;;;4970830;28;20511;-80
2022/04/30 00:15:34;;;;;;;11.73;7.68;;;11.70;98.60;;;;;;4969751;28;20144;-81
2022/04/30 00:18:00;;;;;;;12.63;7.28;;;11.70;98.80;;;;;;4948686;28;20043;-81
2022/04/30 00:20:26;;;;;;;14.40;8.50;;;11.70;98.90;;;;;;4973344;28;20518;-81
2022/04/30 00:22:52;;;;;;;13.77;8.63;;;11.70;99.00;;;;;;4971033;28;20046;-79
2022/04/30 00:25:18;;;;;;;15.02;8.10;;;11.70;99.20;;;;;;4976425;28;20054;-79
2022/04/30 00:27:44;;;;;;;13.70;9.10;;;11.60;99.30;;;;;;4970256;28;20026;-78
2022/04/30 00:30:11;;;;;;;11.38;8.55;;;11.70;99.40;;;;;;4947238;28;20438;-79
2022/04/30 00:32:37;;;;;;;12.15;8.55;;;11.70;99.50;;;;;;4969595;28;20041;-79
2022/04/30 00:35:03;;;;;;;12.20;8.63;;;11.70;99.70;;;;;;4964211;28;20031;-79
2022/04/30 00:37:29;;;;;;;11.10;8.35;;;11.60;99.60;;;;;;4965945;28;20035;-79
2022/04/30 00:39:54;;;;;;;15.20;8.52;;;11.60;99.50;;;;;;4971641;28;20026;-79
2022/04/30 00:42:20;;;;;;;11.10;7.32;;;11.60;99.60;;;;;;4962910;28;20024;-79
2022/04/30 00:44:47;;;;;;;13.98;8.23;;;11.50;99.30;;;;;;4968942;28;20022;-79
2022/04/30 00:47:18;;;;;;;11.15;7.78;;;11.60;99.30;;;;;;4966770;28;20033;-79
2022/04/30 00:49:47;;;;;;;9.15;6.97;;;11.60;99.20;;;;;;4973840;28;20088;-80
2022/04/30 00:52:15;;;;;;;13.35;7.70;;;11.60;99.30;;;;;;4964385;28;20042;-79
2022/04/30 00:54:42;;;;;;;11.38;7.65;;;11.60;99.20;;;;;;4973260;28;20533;-78
2022/04/30 00:57:16;;;;;;;14.27;8.23;;;11.60;99.30;;;;;;4971566;28;20035;-79
2022/04/30 00:59:45;;;;;;;15.02;7.25;;;11.60;99.40;;;;;;4969497;28;20027;-79
2022/04/30 01:02:11;;;;;;;12.00;7.55;;;11.60;99.50;;;;;;4970574;28;20023;-79
2022/04/30 01:04:37;;;;;;;12.10;8.02;;;11.60;99.80;;;;;;4966244;28;20077;-79
2022/04/30 01:07:07;;;;;;;11.73;7.22;;;11.60;99.50;;;;;;4970334;28;20018;-79
2022/04/30 01:09:38;;;;;;;11.65;7.78;;;11.60;99.80;;;;;;4946196;28;20114;-79
2022/04/30 01:12:09;;;;;;;12.95;7.18;;;11.60;99.90;;;;;;4973703;28;20496;-79
2022/04/30 01:14:35;;;;;;;11.13;7.43;;;11.50;99.90;;;;;;4968302;28;20046;-79
2022/04/30 01:17:06;;;;;;;12.10;7.55;;;11.50;99.90;;;;;;4947596;28;20019;-79
2022/04/30 01:19:39;;;;;;;10.05;7.05;;;11.50;99.90;;;;;;4967862;28;20434;-79
2022/04/30 01:22:29;;;;;;;10.88;7.25;;;11.50;99.90;;;;;;4967849;28;20039;-79
2022/04/30 01:24:59;;;;;;;14.85;8.02;;;11.60;99.90;;;;;;4963349;28;20042;-79
2022/04/30 01:27:26;;;;;;;11.82;8.65;;;11.50;99.90;;;;;;4971243;28;20023;-79
2022/04/30 01:29:58;;;;;;;20.88;8.98;;;11.50;99.90;;;;;;4968772;28;20105;-79
2022/04/30 01:38:06;;;;;;;14.55;8.73;;;11.50;99.90;;;;;;4971934;28;20481;-79
2022/04/30 01:40:32;;;;;;;12.95;8.75;;;11.40;99.90;;;;;;4969591;28;20034;-79
2022/04/30 01:43:02;;;;;;;12.45;8.85;;;11.40;99.90;;;;;;4966531;28;20092;-79
2022/04/30 01:45:29;;;;;;;12.93;9.32;;;11.30;99.90;;;;;;4943381;28;20030;-79
2022/04/30 01:47:57;;;;;;;11.65;8.20;;;11.30;99.90;;;;;;4970386;28;20019;-79
2022/04/30 01:50:23;;;;;;;12.00;8.68;;;11.30;99.90;;;;;;4950195;28;20463;-79
2022/04/30 01:52:49;;;;;;;13.05;8.75;;;11.30;99.90;;;;;;4970902;28;20038;-79
2022/04/30 01:55:15;;;;;;;16.25;8.57;;;11.20;99.90;;;;;;4968986;28;20109;-79
2022/04/30 01:57:42;;;;;;;14.02;8.48;;;11.20;99.90;;;;;;4969943;28;20050;-79
2022/04/30 02:00:09;;;;;;;12.65;7.95;;;11.20;99.90;;;;;;4967190;28;20093;-79
2022/04/30 02:02:35;;;;;;;11.27;7.82;;;11.20;99.90;;;;;;4948213;28;20018;-78
2022/04/30 02:05:04;;;;;;;14.00;8.70;;;11.30;99.90;;;;;;4972185;28;20038;-78
2022/04/30 02:07:32;;;;;;;12.00;8.13;;;11.30;99.90;;;;;;4945282;28;20395;-78
2022/04/30 02:09:59;;;;;;;12.63;8.05;;;11.30;99.90;;;;;;4971396;28;20491;-79
2022/04/30 02:12:27;;;;;;;13.60;8.90;;;11.20;99.90;;;;;;4965459;28;20030;-79
2022/04/30 02:14:54;;;;;;;13.48;8.63;;;11.20;99.90;;;;;;4967270;28;20131;-79
2022/04/30 02:17:21;;;;;;;10.85;8.60;;;11.20;99.90;;;;;;4969697;28;20029;-78
2022/04/30 02:22:38;;;;;;;13.25;8.63;;;11.10;99.90;;;;;;4961666;28;20562;-79
2022/04/30 02:25:09;;;;;;;11.77;8.93;;;11.20;99.90;;;;;;4964046;28;20042;-79
2022/04/30 02:27:40;;;;;;;11.13;8.23;;;11.20;99.90;;;;;;4965410;28;20035;-79
2022/04/30 02:30:19;;;;;;;15.55;9.43;;;11.10;99.90;;;;;;4944665;28;20092;-78
2022/04/30 02:32:48;;;;;;;15.30;9.10;;;11.10;99.90;;;;;;4971324;28;20764;-79
2022/04/30 02:35:34;;;;;;;11.30;8.68;;;11.00;99.90;;;;;;4949907;28;20049;-78
2022/04/30 02:38:04;;;;;;;12.90;9.07;;;11.00;99.90;;;;;;4962943;28;20050;-78
2022/04/30 02:40:33;;;;;;;11.80;8.65;;;11.00;99.90;;;;;;4968629;28;20031;-79
2022/04/30 02:43:03;;;;;;;15.43;9.77;;;11.00;99.90;;;;;;4967786;28;21712;-78
2022/04/30 02:45:28;;;;;;;16.73;10.80;;;11.00;99.90;;;;;;4968770;28;20411;-78
2022/04/30 02:47:56;;;;;;;14.00;9.80;;;11.00;99.90;;;;;;4953100;28;20027;-78
2022/04/30 02:50:23;;;;;;;16.10;10.70;;;11.10;99.90;;;;;;4972364;28;20084;-79
2022/04/30 02:52:49;;;;;;;16.20;10.35;;;11.10;99.90;;;;;;4968265;28;20086;-79
2022/04/30 02:55:15;;;;;;;15.48;11.05;;;11.10;99.90;;;;;;4968907;28;20654;-79
2022/04/30 03:00:55;;;;;;;16.70;9.90;;;11.10;99.90;;;;;;4967207;28;20522;-79
2022/04/30 03:03:22;;;;;;;15.40;10.02;;;11.00;99.90;;;;;;4967450;28;20487;-78
2022/04/30 03:05:50;;;;;;;13.20;9.52;;;11.10;99.90;;;;;;4969460;28;20030;-79
2022/04/30 03:08:20;;;;;;;15.98;9.98;;;11.10;99.90;;;;;;4973099;28;20149;-79
2022/04/30 03:10:47;;;;;;;12.88;10.25;;;11.10;99.90;;;;;;4972999;28;20121;-79
2022/04/30 03:13:14;;;;;;;16.90;11.80;;;11.10;99.90;;;;;;4974203;28;20041;-79
2022/04/30 03:15:45;;;;;;;17.85;10.85;;;11.10;99.90;;;;;;4965935;28;20027;-79
2022/04/30 03:23:32;;;;;;;15.95;10.50;;;11.10;99.90;;;;;;4969009;28;20014;-79
2022/04/30 03:25:58;;;;;;;13.38;9.73;;;11.10;99.90;;;;;;4971113;28;20042;-79
2022/04/30 03:28:24;;;;;;;17.05;9.93;;;11.00;99.90;;;;;;4965920;28;20059;-78
2022/04/30 03:30:49;;;;;;;13.02;10.02;;;11.00;99.90;;;;;;4961434;28;20027;-78
2022/04/30 03:33:15;;;;;;;19.80;10.93;;;11.00;99.90;;;;;;4958237;28;20407;-78
2022/04/30 03:35:42;;;;;;;19.20;11.93;;;11.00;99.90;;;;;;4969034;28;20088;-79
2022/04/30 03:38:08;;;;;;;17.70;11.40;;;11.00;99.90;;;;;;4962388;28;20023;-79
2022/04/30 03:40:35;;;;;;;18.20;12.07;;;11.10;99.90;;;;;;4968855;28;20057;-79
2022/04/30 03:43:02;;;;;;;20.25;12.73;;;11.10;99.90;;;;;;4967085;28;20122;-79
2022/04/30 03:45:28;;;;;;;19.73;12.43;;;11.10;99.90;;;;;;4969675;28;20542;-78
2022/04/30 03:47:54;;;;;;;25.75;13.25;;;11.20;99.90;;;;;;4967467;28;20018;-78
2022/04/30 03:50:20;;;;;;;26.70;14.20;;;11.20;99.90;;;;;;4969079;28;20019;-79
2022/04/30 03:52:46;;;;;;;23.63;13.45;;;11.30;99.90;;;;;;4969329;28;20038;-79
2022/04/30 03:55:14;;;;;;;21.23;13.18;;;11.30;99.90;;;;;;4972557;28;20691;-79
2022/04/30 03:57:40;;;;;;;19.77;12.80;;;11.40;99.90;;;;;;4971006;28;20062;-79
2022/04/30 04:00:08;;;;;;;20.70;13.13;;;11.40;99.90;;;;;;4970630;28;20051;-79
2022/04/30 04:02:36;;;;;;;20.05;12.60;;;11.40;99.90;;;;;;4972921;28;20023;-79
2022/04/30 04:05:02;;;;;;;21.63;13.50;;;11.50;99.90;;;;;;4970797;28;20498;-79
2022/04/30 04:07:30;;;;;;;20.35;13.75;;;11.50;99.90;;;;;;4955197;28;20026;-79
2022/04/30 04:09:56;;;;;;;20.20;13.75;;;11.50;99.90;;;;;;4951464;28;20026;-79
2022/04/30 04:12:22;;;;;;;23.65;14.50;;;11.50;99.90;;;;;;4970214;28;20399;-79
2022/04/30 04:17:38;;;;;;;23.42;13.73;;;11.50;99.90;;;;;;4957262;28;20046;-79
2022/04/30 04:20:13;;;;;;;22.17;14.02;;;11.40;99.90;;;;;;4964854;28;20046;-79
2022/04/30 04:22:39;;;;;;;22.65;15.40;;;11.40;99.90;;;;;;4972492;28;20509;-79
2022/04/30 04:27:54;;;;;;;28.08;15.68;;;11.40;99.90;;;;;;4969904;28;20037;-79
2022/04/30 04:30:27;;;;;;;27.63;16.58;;;11.40;99.90;;;;;;4947960;28;20033;-79
2022/04/30 04:32:53;;;;;;;27.50;15.27;;;11.40;99.90;;;;;;4947104;28;20066;-78
2022/04/30 04:35:19;;;;;;;23.83;14.32;;;11.40;99.90;;;;;;4951970;28;20051;-79
2022/04/30 04:37:45;;;;;;;20.75;13.52;;;11.40;99.90;;;;;;4968033;28;20035;-79
2022/04/30 04:40:13;;;;;;;20.50;13.98;;;11.40;99.90;;;;;;4971579;28;20030;-79
2022/04/30 04:42:40;;;;;;;24.63;13.82;;;11.40;99.90;;;;;;4956200;28;20027;-79
2022/04/30 04:45:07;;;;;;;24.58;14.90;;;11.40;99.90;;;;;;4947285;28;20015;-79
2022/04/30 04:47:39;;;;;;;22.38;13.85;;;11.40;99.90;;;;;;4972305;28;20318;-79
2022/04/30 04:50:07;;;;;;;21.85;13.88;;;11.40;99.90;;;;;;4966002;28;20030;-79
2022/04/30 04:52:33;;;;;;;24.38;14.63;;;11.40;99.90;;;;;;4968219;28;20034;-79
2022/04/30 04:54:59;;;;;;;32.13;15.63;;;11.40;99.90;;;;;;4941806;28;20030;-78
2022/04/30 04:57:24;;;;;;;24.73;15.52;;;11.40;99.90;;;;;;4965463;28;20039;-77
2022/04/30 04:59:51;;;;;;;21.60;13.30;;;11.40;99.90;;;;;;4975888;28;20050;-78
2022/04/30 05:02:18;;;;;;;24.23;14.50;;;11.50;99.90;;;;;;4964605;28;20082;-75
2022/04/30 05:04:43;;;;;;;22.63;13.85;;;11.50;99.90;;;;;;4964560;28;20023;-77
2022/04/30 05:07:09;;;;;;;22.88;14.32;;;11.40;99.90;;;;;;4949648;28;20395;-77
2022/04/30 05:09:35;;;;;;;26.48;15.07;;;11.50;99.90;;;;;;4966540;28;20023;-77
2022/04/30 05:12:01;;;;;;;22.15;14.80;;;11.50;99.90;;;;;;4966890;28;20482;-77
2022/04/30 05:14:32;;;;;;;23.73;15.25;;;11.50;99.90;;;;;;4964461;28;23914;-77
2022/04/30 05:16:58;;;;;;;24.92;15.35;;;11.50;99.90;;;;;;4964984;28;20070;-78
2022/04/30 05:19:24;;;;;;;24.05;14.95;;;11.50;99.90;;;;;;4931986;28;20027;-78
2022/04/30 05:21:50;;;;;;;26.80;15.25;;;11.50;99.90;;;;;;4964240;28;20030;-75
2022/04/30 05:24:16;;;;;;;25.00;15.23;;;11.50;99.90;;;;;;4945045;28;20570;-77
2022/04/30 05:26:41;;;;;;;24.40;15.32;;;11.50;99.90;;;;;;4963015;28;20027;-77
2022/04/30 05:29:07;;;;;;;24.15;15.07;;;11.50;99.90;;;;;;4957313;28;20069;-77
2022/04/30 05:31:33;;;;;;;22.85;14.90;;;11.40;99.90;;;;;;4965401;28;20038;-77
2022/04/30 05:33:59;;;;;;;23.55;14.80;;;11.40;99.90;;;;;;4964667;28;20027;-77
2022/04/30 05:36:25;;;;;;;26.42;15.93;;;11.40;99.90;;;;;;4958434;28;20030;-77
2022/04/30 05:38:51;;;;;;;27.80;15.95;;;11.40;99.90;;;;;;4964398;28;20086;-78
2022/04/30 05:41:17;;;;;;;24.58;16.27;;;11.40;99.90;;;;;;4961515;28;20035;-77
2022/04/30 05:43:43;;;;;;;26.48;16.33;;;11.40;99.90;;;;;;4961936;28;20027;-77
2022/04/30 05:46:08;;;;;;;21.95;15.20;;;11.50;99.90;;;;;;4961025;28;20430;-78
2022/04/30 05:48:34;;;;;;;23.25;15.50;;;11.50;99.90;;;;;;4960846;28;20706;-77
2022/04/30 05:51:02;;;;;;;26.00;15.38;;;11.50;99.90;;;;;;4958835;28;20489;-77
2022/04/30 05:53:28;;;;;;;25.60;15.63;;;11.50;99.90;;;;;;4963989;28;20042;-78
2022/04/30 05:55:53;;;;;;;26.35;16.08;;;11.50;99.90;;;;;;4980139;23;20043;-74
2022/04/30 05:58:19;;;;;;;25.48;16.10;;;11.50;99.90;;;;;;4942632;28;20480;-75
2022/04/30 06:00:45;;;;;;;26.13;16.02;;;11.40;99.90;;;;;;4945427;28;20027;-74
2022/04/30 06:03:11;;;;;;;27.17;17.08;;;11.40;99.90;;;;;;4927163;28;20023;-76
2022/04/30 06:05:37;;;;;;;26.77;17.10;;;11.40;99.90;;;;;;4954346;28;20031;-75
2022/04/30 06:08:06;;;;;;;28.10;16.90;;;11.40;99.90;;;;;;4964646;28;20472;-76
2022/04/30 06:10:32;;;;;;;26.23;16.50;;;11.40;99.90;;;;;;4960724;28;20141;-75
2022/04/30 06:12:58;;;;;;;28.70;16.58;;;11.40;99.90;;;;;;4958179;28;20039;-74
2022/04/30 06:15:25;;;;;;;30.50;18.83;;;11.40;99.90;;;;;;4961955;28;20074;-74
2022/04/30 06:17:51;;;;;;;26.92;17.33;;;11.40;99.90;;;;;;4963358;28;20039;-75
2022/04/30 06:20:16;;;;;;;28.77;15.63;;;11.50;99.90;;;;;;4962456;28;20035;-75
2022/04/30 06:22:42;;;;;;;28.63;17.55;;;11.50;99.90;;;;;;4963310;28;20090;-74
2022/04/30 06:25:08;;;;;;;25.85;16.92;;;11.60;99.90;;;;;;4956334;28;20023;-75
2022/04/30 06:27:34;;;;;;;26.40;15.57;;;11.60;99.90;;;;;;4963243;28;20037;-75
2022/04/30 06:30:00;;;;;;;27.80;16.90;;;11.60;99.90;;;;;;4946681;28;20027;-75
2022/04/30 06:32:26;;;;;;;26.42;16.75;;;11.60;99.90;;;;;;4959293;28;20023;-76
2022/04/30 06:34:52;;;;;;;29.92;17.23;;;11.60;99.90;;;;;;4961952;28;20027;-76
2022/04/30 06:37:18;;;;;;;23.98;15.45;;;11.60;99.90;;;;;;4960001;28;20027;-75
2022/04/30 06:39:45;;;;;;;28.60;16.35;;;11.60;99.90;;;;;;4956474;28;20051;-76
2022/04/30 06:42:10;;;;;;;24.30;15.10;;;11.60;99.90;;;;;;4961276;28;20037;-75
2022/04/30 06:44:36;;;;;;;23.98;16.00;;;11.60;99.90;;;;;;4961800;28;20038;-76
2022/04/30 06:47:02;;;;;;;27.35;16.15;;;11.70;99.90;;;;;;4966074;28;20055;-76
2022/04/30 06:49:27;;;;;;;21.20;15.48;;;11.70;99.90;;;;;;4964813;28;20043;-76
2022/04/30 06:51:53;;;;;;;25.63;15.68;;;11.70;99.90;;;;;;4960152;28;20031;-76
2022/04/30 06:57:16;;;;;;;23.25;16.55;;;11.80;99.90;;;;;;4963225;28;20037;-76
2022/04/30 06:59:45;;;;;;;22.67;17.02;;;11.80;99.90;;;;;;4963655;28;20037;-76
2022/04/30 07:02:18;;;;;;;25.67;16.67;;;11.90;99.90;;;;;;4961643;28;20031;-76
2022/04/30 07:04:46;;;;;;;25.25;16.83;;;12.00;99.90;;;;;;4958362;28;20027;-76
2022/04/30 07:07:13;;;;;;;24.20;16.27;;;12.00;99.90;;;;;;4940147;28;20180;-76
2022/04/30 07:09:39;;;;;;;25.23;15.95;;;12.10;99.90;;;;;;4957531;28;20535;-76
2022/04/30 07:12:07;;;;;;;28.58;17.35;;;12.10;99.90;;;;;;4959290;28;20057;-77
2022/04/30 07:14:37;;;;;;;28.30;17.98;;;12.20;99.90;;;;;;4962181;28;20034;-76
2022/04/30 07:17:13;;;;;;;26.38;17.63;;;12.20;99.90;;;;;;4962598;28;20026;-76
2022/04/30 07:19:40;;;;;;;23.85;16.50;;;12.30;99.90;;;;;;4940779;28;20063;-76
2022/04/30 07:22:09;;;;;;;24.17;14.85;;;12.40;99.90;;;;;;4954342;28;20023;-76
2022/04/30 07:24:35;;;;;;;28.65;15.73;;;12.40;99.90;;;;;;4965804;28;20050;-76
2022/04/30 07:27:04;;;;;;;26.77;17.13;;;12.50;99.90;;;;;;4962779;28;20538;-76
2022/04/30 07:29:30;;;;;;;27.88;16.40;;;12.60;99.90;;;;;;4942058;28;20399;-76
2022/04/30 07:31:55;;;;;;;26.05;16.67;;;12.60;99.90;;;;;;4956882;28;20157;-76
2022/04/30 07:34:22;;;;;;;24.90;16.98;;;12.70;99.90;;;;;;4956266;28;20039;-76
2022/04/30 07:36:48;;;;;;;26.85;16.92;;;12.60;99.90;;;;;;4957841;28;20035;-76
2022/04/30 07:39:14;;;;;;;26.33;16.73;;;12.50;99.90;;;;;;4943827;28;20030;-76
2022/04/30 07:41:40;;;;;;;24.15;16.52;;;12.50;99.90;;;;;;4965191;28;20034;-76
2022/04/30 07:44:06;;;;;;;23.02;16.42;;;12.40;99.90;;;;;;4964107;28;20030;-76
2022/04/30 07:46:31;;;;;;;22.85;15.82;;;12.40;99.90;;;;;;4963804;28;20628;-76
2022/04/30 07:48:57;;;;;;;26.40;17.13;;;12.40;99.90;;;;;;4961922;28;20042;-76
2022/04/30 07:51:42;;;;;;;27.45;17.77;;;12.40;99.90;;;;;;4958437;28;20066;-76
2022/04/30 07:54:09;;;;;;;27.77;17.30;;;12.40;99.90;;;;;;4960968;28;20031;-76
2022/04/30 07:56:34;;;;;;;28.52;17.08;;;12.40;99.90;;;;;;4959694;28;20495;-75
2022/04/30 07:59:00;;;;;;;25.83;16.95;;;12.40;99.90;;;;;;4948259;28;20089;-76
2022/04/30 08:01:26;;;;;;;24.90;17.27;;;12.30;99.90;;;;;;4961192;28;20034;-76
2022/04/30 08:03:52;;;;;;;23.27;15.98;;;12.20;99.90;;;;;;4964071;28;20115;-76
2022/04/30 08:06:17;;;;;;;24.40;17.25;;;12.30;99.90;;;;;;4960407;28;20090;-76
2022/04/30 08:08:43;;;;;;;24.83;16.35;;;12.40;99.90;;;;;;4957300;28;20435;-76
2022/04/30 08:11:09;;;;;;;24.05;16.15;;;12.40;99.90;;;;;;4960798;28;20054;-76
2022/04/30 08:13:35;;;;;;;26.17;16.77;;;12.40;99.90;;;;;;4961046;28;20149;-76
2022/04/30 08:16:01;;;;;;;27.20;17.10;;;12.40;99.90;;;;;;4959170;28;20058;-76
2022/04/30 08:18:27;;;;;;;28.05;18.10;;;12.30;99.90;;;;;;4962697;28;21449;-77
2022/04/30 08:20:53;;;;;;;25.85;17.00;;;12.30;99.90;;;;;;4964411;28;20759;-76
2022/04/30 08:23:19;;;;;;;26.88;18.35;;;12.40;99.90;;;;;;4961295;28;20442;-76
2022/04/30 08:25:45;;;;;;;26.20;17.88;;;12.40;99.90;;;;;;4957213;28;20502;-77
2022/04/30 08:28:11;;;;;;;25.17;16.40;;;12.50;99.90;;;;;;4962837;28;20065;-77
2022/04/30 08:30:36;;;;;;;22.85;15.18;;;12.50;99.90;;;;;;4964741;28;20038;-77
2022/04/30 08:33:02;;;;;;;25.25;15.85;;;12.50;99.90;;;;;;4966563;28;20042;-76
2022/04/30 08:35:28;;;;;;;30.30;17.73;;;12.50;99.90;;;;;;4962989;28;20487;-78
2022/04/30 08:37:54;;;;;;;24.63;16.98;;;12.50;99.90;;;;;;4961426;28;20034;-77
2022/04/30 08:40:19;;;;;;;25.50;18.67;;;12.50;99.90;;;;;;4965589;28;20259;-78
2022/04/30 08:42:46;;;;;;;26.05;17.58;;;12.50;99.90;;;;;;4961356;28;20071;-76
2022/04/30 08:45:12;;;;;;;24.63;16.67;;;12.50;99.90;;;;;;4962947;28;20113;-77
2022/04/30 08:47:46;;;;;;;23.83;17.52;;;12.50;99.90;;;;;;4967671;28;20031;-77
2022/04/30 08:50:14;;;;;;;25.33;16.92;;;12.60;99.90;;;;;;4964489;28;20089;-77
2022/04/30 08:52:41;;;;;;;26.13;16.73;;;12.50;99.90;;;;;;4965718;28;20034;-77
2022/04/30 08:55:08;;;;;;;26.88;16.33;;;12.50;99.90;;;;;;4962185;28;20035;-77
2022/04/30 08:57:34;;;;;;;21.63;15.05;;;12.60;99.90;;;;;;4943604;28;20118;-76
2022/04/30 09:00:01;;;;;;;23.25;15.52;;;12.60;99.90;;;;;;4962969;28;20438;-75
2022/04/30 09:02:26;;;;;;;24.15;14.93;;;12.60;99.90;;;;;;4962299;28;20089;-77
2022/04/30 09:04:54;;;;;;;22.75;14.43;;;12.60;99.90;;;;;;4951482;28;20026;-76
2022/04/30 09:07:22;;;;;;;20.05;13.25;;;12.80;99.90;;;;;;4941941;28;20361;-76
2022/04/30 09:09:55;;;;;;;22.35;15.57;;;12.80;99.90;;;;;;4942963;28;20027;-79
2022/04/30 09:12:20;;;;;;;20.58;13.93;;;12.90;99.90;;;;;;4965894;28;20026;-78
2022/04/30 09:14:47;;;;;;;18.13;13.05;;;12.90;99.90;;;;;;4968121;28;20605;-79
2022/04/30 09:17:15;;;;;;;24.13;14.13;;;12.80;99.90;;;;;;4978740;28;20038;-78
2022/04/30 09:19:59;;;;;;;21.13;13.77;;;12.80;99.90;;;;;;4980658;28;20503;-79
2022/04/30 09:22:29;;;;;;;21.55;12.77;;;12.80;99.90;;;;;;4979980;28;20099;-78
2022/04/30 09:24:55;;;;;;;21.85;14.30;;;12.70;99.90;;;;;;4966051;28;20030;-78
2022/04/30 09:27:21;;;;;;;18.73;12.68;;;12.60;99.90;;;;;;4975708;28;20403;-78
2022/04/30 09:29:47;;;;;;;16.55;11.30;;;12.70;99.90;;;;;;4961440;28;20026;-78
2022/04/30 09:32:17;;;;;;;14.55;10.55;;;12.60;99.90;;;;;;4962960;28;20113;-77
2022/04/30 09:37:49;;;;;;;18.17;11.77;;;12.60;99.90;;;;;;4963808;28;20089;-75
2022/04/30 09:40:14;;;;;;;20.15;12.65;;;12.70;99.90;;;;;;4958474;28;20467;-76
2022/04/30 09:42:46;;;;;;;15.50;10.77;;;12.80;99.90;;;;;;4962539;28;20026;-76
2022/04/30 09:45:23;;;;;;;16.55;10.73;;;12.90;99.90;;;;;;4949675;28;20483;-76
2022/04/30 09:47:50;;;;;;;14.38;10.13;;;12.70;99.90;;;;;;4964527;28;20031;-76
2022/04/30 09:53:56;;;;;;;14.38;9.85;;;12.80;99.90;;;;;;4962946;28;20426;-76
2022/04/30 09:55:53;;;;;;;20.58;12.10;;;13.00;99.90;;;;;;4962715;28;20506;-76
2022/04/30 09:58:26;;;;;;;22.52;12.10;;;13.00;99.90;;;;;;4962833;28;20031;-77
2022/04/30 10:00:57;;;;;;;14.75;9.98;;;13.10;99.90;;;;;;4964012;28;20077;-76
2022/04/30 10:03:30;;;;;;;17.90;10.43;;;13.10;99.90;;;;;;4934696;28;20026;-76
2022/04/30 10:06:04;;;;;;;14.35;10.13;;;13.20;99.90;;;;;;4947092;28;20046;-76
2022/04/30 10:08:35;;;;;;;15.02;9.77;;;13.30;99.90;;;;;;4951702;28;20038;-76
2022/04/30 10:11:07;;;;;;;13.25;8.90;;;13.40;99.90;;;;;;4965786;28;20099;-76
2022/04/30 10:13:49;;;;;;;12.88;8.40;;;13.70;99.90;;;;;;4966864;28;20447;-76
2022/04/30 10:16:26;;;;;;;12.60;8.07;;;13.80;99.90;;;;;;4963791;28;20030;-76
2022/04/30 10:19:11;;;;;;;12.02;8.25;;;13.90;99.90;;;;;;4948568;28;20023;-76
2022/04/30 10:21:37;;;;;;;11.35;8.25;;;13.80;99.90;;;;;;4965892;28;20031;-76
2022/04/30 10:24:05;;;;;;;12.48;8.00;;;13.80;99.90;;;;;;4964133;28;20433;-76
2022/04/30 10:26:31;;;;;;;12.77;7.97;;;13.90;99.90;;;;;;4962691;28;20049;-76
2022/04/30 10:29:01;;;;;;;11.18;7.93;;;14.10;99.90;;;;;;4960434;28;20535;-76
2022/04/30 10:31:27;;;;;;;13.02;8.45;;;14.30;99.90;;;;;;4964208;28;20399;-76
2022/04/30 10:33:53;;;;;;;9.52;7.07;;;14.20;99.90;;;;;;4964368;28;20030;-77
2022/04/30 10:36:21;;;;;;;8.90;6.43;;;14.30;99.90;;;;;;4956896;28;20019;-76
2022/04/30 10:38:59;;;;;;;9.85;6.95;;;14.30;99.90;;;;;;4964272;28;20027;-81
2022/04/30 10:41:26;;;;;;;8.13;6.40;;;14.40;99.90;;;;;;4964931;28;20030;-80
2022/04/30 10:44:02;;;;;;;9.43;5.65;;;14.50;99.90;;;;;;4941944;28;20023;-76
2022/04/30 10:46:36;;;;;;;8.05;5.90;;;14.50;99.90;;;;;;4965067;28;20026;-76
2022/04/30 10:49:04;;;;;;;7.90;5.47;;;14.40;99.90;;;;;;4960532;28;20029;-77
2022/04/30 10:51:39;;;;;;;8.38;5.10;;;14.40;99.90;;;;;;4962725;28;20034;-77
2022/04/30 10:54:09;;;;;;;7.18;5.53;;;14.40;99.90;;;;;;4961220;28;20131;-76
2022/04/30 10:56:35;;;;;;;9.25;5.72;;;14.20;99.90;;;;;;4960766;28;20624;-80
2022/04/30 10:59:01;;;;;;;8.40;6.15;;;14.10;99.90;;;;;;4961147;28;20034;-81
2022/04/30 11:01:26;;;;;;;7.75;5.93;;;14.10;99.90;;;;;;4964297;28;20042;-80
2022/04/30 11:03:52;;;;;;;6.60;4.90;;;14.00;99.90;;;;;;4959356;28;20030;-81
2022/04/30 11:06:23;;;;;;;6.80;5.22;;;13.90;99.90;;;;;;4958917;28;20046;-78
2022/04/30 11:09:08;;;;;;;9.00;5.60;;;13.80;99.90;;;;;;4960399;28;20057;-80
2022/04/30 11:11:35;;;;;;;8.52;5.00;;;13.90;99.90;;;;;;4958901;28;20027;-80
2022/04/30 11:14:08;;;;;;;7.45;5.30;;;14.00;99.90;;;;;;4956841;28;20033;-79
2022/04/30 11:16:37;;;;;;;6.80;4.80;;;14.00;99.90;;;;;;4962559;28;20062;-83
2022/04/30 11:19:11;;;;;;;9.38;6.03;;;14.00;99.90;;;;;;4925794;28;20035;-85
2022/04/30 11:21:37;;;;;;;8.60;6.10;;;14.20;99.90;;;;;;4979619;28;20034;-82
2022/04/30 11:24:04;;;;;;;7.25;5.43;;;14.20;99.90;;;;;;4997148;28;20030;-83
2022/04/30 11:26:43;;;;;;;9.02;6.28;;;14.10;99.90;;;;;;4981757;28;20483;-84
2022/04/30 11:29:13;;;;;;;10.30;6.85;;;14.10;99.90;;;;;;4984551;28;20037;-83
2022/04/30 11:31:41;;;;;;;9.60;6.38;;;14.00;99.90;;;;;;4994940;28;20035;-85
2022/04/30 11:34:15;;;;;;;8.43;6.05;;;13.90;99.90;;;;;;4998830;28;20530;-81
2022/04/30 11:36:56;;;;;;;9.10;5.85;;;13.70;99.90;;;;;;4982962;28;20038;-80
2022/04/30 11:39:23;;;;;;;8.35;6.20;;;13.70;99.90;;;;;;4974152;28;20026;-81
2022/04/30 11:41:50;;;;;;;10.77;6.60;;;13.60;99.90;;;;;;4978480;28;20030;-81
2022/04/30 11:44:27;;;;;;;9.27;6.80;;;13.70;99.90;;;;;;4980465;28;20394;-80
2022/04/30 11:46:54;;;;;;;8.50;6.35;;;13.70;99.90;;;;;;4983841;28;20386;-81
2022/04/30 11:49:22;;;;;;;7.50;5.60;;;13.80;99.90;;;;;;4980530;28;20113;-80
2022/04/30 11:51:50;;;;;;;7.82;6.35;;;13.90;99.90;;;;;;4977501;28;20085;-81
2022/04/30 11:54:18;;;;;;;10.30;7.55;;;13.90;99.90;;;;;;4979804;28;20068;-80
2022/04/30 11:56:45;;;;;;;8.80;5.97;;;13.90;99.90;;;;;;5028366;23;20038;-77
2022/04/30 11:59:11;;;;;;;9.30;6.07;;;14.10;99.90;;;;;;4995252;28;20109;-76
2022/04/30 12:01:42;;;;;;;12.13;7.00;;;14.10;99.90;;;;;;4997703;28;20658;-76
2022/04/30 12:04:11;;;;;;;9.05;6.68;;;14.20;99.90;;;;;;4993254;28;20037;-76
2022/04/30 12:06:38;;;;;;;7.28;5.68;;;14.30;99.90;;;;;;4985627;28;20030;-77
2022/04/30 12:09:20;;;;;;;7.60;6.28;;;14.30;99.90;;;;;;4998064;28;20030;-77
2022/04/30 12:11:51;;;;;;;8.20;6.00;;;14.40;99.90;;;;;;4999135;28;20061;-77
2022/04/30 12:14:19;;;;;;;8.32;6.03;;;14.40;99.90;;;;;;5003081;28;20054;-77
2022/04/30 12:16:47;;;;;;;7.82;5.32;;;14.60;99.90;;;;;;5002902;28;20072;-77
2022/04/30 12:25:06;;;;;;;10.18;6.07;;;15.30;99.90;;;;;;4997232;28;20034;-75
2022/04/30 12:27:33;;;;;;;7.15;5.95;;;15.50;99.90;;;;;;5003202;28;20021;-75
2022/04/30 12:30:05;;;;;;;5.80;4.72;;;15.60;99.90;;;;;;5000548;28;20038;-76
2022/04/30 12:32:34;;;;;;;7.75;5.15;;;15.40;99.90;;;;;;5001037;28;20030;-76
2022/04/30 12:35:01;;;;;;;7.97;6.10;;;15.10;99.90;;;;;;5001519;28;20030;-76
2022/04/30 12:37:31;;;;;;;11.20;7.15;;;14.50;99.90;;;;;;5002926;28;20061;-76
2022/04/30 12:39:57;;;;;;;7.72;6.20;;;14.00;99.90;;;;;;4982148;28;20398;-76
2022/04/30 12:42:23;;;;;;;8.57;5.55;;;13.80;99.90;;;;;;4985461;28;20067;-77
2022/04/30 12:44:49;;;;;;;7.10;5.40;;;13.60;99.90;;;;;;4997831;28;20165;-76
2022/04/30 12:47:14;;;;;;;8.98;5.63;;;13.50;99.90;;;;;;4995586;28;20018;-76
2022/04/30 12:49:40;;;;;;;8.38;5.57;;;13.40;99.90;;;;;;4999356;28;20080;-77
2022/04/30 12:52:06;;;;;;;8.50;6.10;;;13.20;99.90;;;;;;5003041;28;20032;-76
2022/04/30 12:54:32;;;;;;;8.48;5.88;;;13.20;99.90;;;;;;5001308;28;20110;-77
2022/04/30 12:56:57;;;;;;;8.80;6.38;;;13.20;99.90;;;;;;4983119;28;20034;-76
2022/04/30 12:59:25;;;;;;;12.65;7.00;;;13.20;99.90;;;;;;4996509;28;20181;-76
2022/04/30 13:01:51;;;;;;;9.18;6.85;;;13.20;99.90;;;;;;4996697;28;20164;-77
2022/04/30 13:04:18;;;;;;;9.90;6.28;;;13.20;99.90;;;;;;4982722;28;20021;-77
2022/04/30 13:06:44;;;;;;;11.05;7.55;;;13.20;99.90;;;;;;4999047;28;20041;-77
2022/04/30 13:14:38;;;;;;;10.48;7.45;;;13.50;99.90;;;;;;5002406;28;20129;-77
2022/04/30 13:17:04;;;;;;;9.23;6.68;;;13.70;99.90;;;;;;5000845;28;20520;-78
2022/04/30 13:19:33;;;;;;;8.95;6.78;;;13.80;99.90;;;;;;4989509;28;20029;-77